createdAt,value
2022-10-20T00:01:14.822Z,7.80
2022-10-20T00:03:41.927Z,8.17
2022-10-20T00:06:11.434Z,8.87
2022-10-20T00:08:39.901Z,9.17
2022-10-20T00:11:08.014Z,8.60
2022-10-20T00:13:35.677Z,9.47
2022-10-20T00:16:02.969Z,8.97
2022-10-20T00:18:29.867Z,9.67
2022-10-20T00:20:56.722Z,10.00
2022-10-20T00:23:23.654Z,11.20
2022-10-20T00:26:11.233Z,9.77
2022-10-20T00:28:38.165Z,9.33
2022-10-20T00:31:06.347Z,10.20
2022-10-20T00:33:33.990Z,10.47
2022-10-20T00:36:02.661Z,11.50
2022-10-20T00:38:29.422Z,11.53
2022-10-20T00:40:56.530Z,10.63
2022-10-20T00:43:23.282Z,10.80
2022-10-20T00:45:54.742Z,11.10
2022-10-20T00:48:25.657Z,10.30
2022-10-20T00:50:55.474Z,10.83
2022-10-20T00:53:24.691Z,10.80
2022-10-20T00:55:54.786Z,10.53
2022-10-20T00:58:21.936Z,10.67
2022-10-20T01:00:52.268Z,10.70
2022-10-20T01:03:30.422Z,11.10
2022-10-20T01:05:57.431Z,12.40
2022-10-20T01:08:24.229Z,12.50
2022-10-20T01:11:00.854Z,12.00
2022-10-20T01:13:57.680Z,11.80
2022-10-20T01:16:41.527Z,12.90
2022-10-20T01:19:39.469Z,12.60
2022-10-20T01:22:24.766Z,11.93
2022-10-20T01:25:10.338Z,12.33
2022-10-20T01:27:42.274Z,11.77
2022-10-20T01:30:16.788Z,12.03
2022-10-20T01:33:04.400Z,12.67
2022-10-20T01:35:49.022Z,12.30
2022-10-20T01:38:30.723Z,11.13
2022-10-20T01:41:11.917Z,11.70
2022-10-20T01:43:42.277Z,12.07
2022-10-20T01:46:10.710Z,11.63
2022-10-20T01:48:40.345Z,12.13
2022-10-20T01:51:08.666Z,11.60
2022-10-20T01:53:35.710Z,11.87
2022-10-20T01:56:04.262Z,10.33
2022-10-20T01:58:49.490Z,11.10
2022-10-20T02:01:25.111Z,11.63
2022-10-20T02:03:56.097Z,11.70
2022-10-20T02:07:06.677Z,12.60
2022-10-20T02:09:42.731Z,11.47
2022-10-20T02:12:34.939Z,11.30
2022-10-20T02:15:03.800Z,11.80
2022-10-20T02:17:31.226Z,10.53
2022-10-20T02:19:58.789Z,10.27
2022-10-20T02:22:26.413Z,11.00
2022-10-20T02:24:53.668Z,10.50
2022-10-20T02:27:29.188Z,11.20
2022-10-20T02:30:03.796Z,10.67
2022-10-20T02:32:32.637Z,11.17
2022-10-20T02:35:04.927Z,10.83
2022-10-20T02:37:34.276Z,11.50
2022-10-20T02:40:01.599Z,9.50
2022-10-20T02:42:28.386Z,10.70
2022-10-20T02:44:55.862Z,10.60
2022-10-20T02:47:22.828Z,10.97
2022-10-20T02:49:49.713Z,9.40
2022-10-20T02:52:16.562Z,10.20
2022-10-20T02:54:43.519Z,10.20
2022-10-20T02:57:10.365Z,10.33
2022-10-20T02:59:37.276Z,10.20
2022-10-20T03:02:04.199Z,10.40
2022-10-20T03:04:31.109Z,10.90
2022-10-20T03:06:57.912Z,11.10
2022-10-20T03:09:24.844Z,10.50
2022-10-20T03:11:51.691Z,10.70
2022-10-20T03:14:18.522Z,9.93
2022-10-20T03:16:45.332Z,10.87
2022-10-20T03:19:12.186Z,12.10
2022-10-20T03:21:39.174Z,10.90
2022-10-20T03:24:06.312Z,9.67
2022-10-20T03:26:33.241Z,9.67
2022-10-20T03:29:00.227Z,11.13
2022-10-20T03:31:27.135Z,10.53
2022-10-20T03:33:53.975Z,11.57
2022-10-20T03:36:20.809Z,10.13
2022-10-20T03:38:47.600Z,10.80
2022-10-20T03:41:14.436Z,10.70
2022-10-20T03:43:41.397Z,9.90
2022-10-20T03:46:10.509Z,11.07
2022-10-20T03:48:38.229Z,9.23
2022-10-20T03:51:06.539Z,9.57
2022-10-20T03:53:33.848Z,10.40
2022-10-20T03:56:06.929Z,10.93
2022-10-20T03:58:33.965Z,9.43
2022-10-20T04:01:00.776Z,9.77
2022-10-20T04:03:27.605Z,9.67
2022-10-20T04:05:54.425Z,9.03
2022-10-20T04:08:21.230Z,9.27
2022-10-20T04:10:48.075Z,8.70
2022-10-20T04:13:14.929Z,9.20
2022-10-20T04:15:41.787Z,8.70
2022-10-20T04:18:08.703Z,11.00
2022-10-20T04:20:37.355Z,9.10
2022-10-20T04:23:06.209Z,9.17
2022-10-20T04:25:33.002Z,8.93
2022-10-20T04:28:00.387Z,8.40
2022-10-20T04:30:27.351Z,9.03
2022-10-20T04:32:54.141Z,8.20
2022-10-20T04:35:20.964Z,8.33
2022-10-20T04:37:47.722Z,8.03
2022-10-20T04:40:14.594Z,8.57
2022-10-20T04:42:41.426Z,8.77
2022-10-20T04:45:08.678Z,8.13
2022-10-20T04:47:38.005Z,7.60
2022-10-20T04:50:06.093Z,8.83
2022-10-20T04:52:33.238Z,8.37
2022-10-20T04:55:00.010Z,7.57
2022-10-20T04:57:27.485Z,8.70
2022-10-20T04:59:54.269Z,9.00
2022-10-20T05:02:21.067Z,8.30
2022-10-20T05:04:47.837Z,8.53
2022-10-20T05:07:14.637Z,8.83
2022-10-20T05:09:41.424Z,8.70
2022-10-20T05:12:08.432Z,8.80
2022-10-20T05:14:35.279Z,8.53
2022-10-20T05:17:04.200Z,8.10
2022-10-20T05:19:33.385Z,7.80
2022-10-20T05:22:00.193Z,8.23
2022-10-20T05:24:29.939Z,10.70
2022-10-20T05:26:57.058Z,9.00
2022-10-20T05:29:24.572Z,8.03
2022-10-20T05:31:51.466Z,9.10
2022-10-20T05:34:18.284Z,7.90
2022-10-20T05:36:45.169Z,8.10
2022-10-20T05:39:12.133Z,8.13
2022-10-20T05:41:39.455Z,8.27
2022-10-20T05:44:09.046Z,7.07
2022-10-20T05:46:41.724Z,7.47
2022-10-20T05:49:14.245Z,7.90
2022-10-20T05:51:41.706Z,7.67
2022-10-20T05:54:12.091Z,8.50
2022-10-20T05:56:39.162Z,7.87
2022-10-20T05:59:06.009Z,8.33
2022-10-20T06:01:49.385Z,7.57
2022-10-20T06:04:18.864Z,8.27
2022-10-20T06:06:45.770Z,7.43
2022-10-20T06:09:12.706Z,8.13
2022-10-20T06:11:39.963Z,7.57
2022-10-20T06:14:08.215Z,8.10
2022-10-20T06:16:35.352Z,7.97
2022-10-20T06:19:02.825Z,8.20
2022-10-20T06:21:32.161Z,7.80
2022-10-20T06:24:00.374Z,7.40
2022-10-20T06:26:32.789Z,7.60
2022-10-20T06:29:04.327Z,7.93
2022-10-20T06:31:34.734Z,7.47
2022-10-20T06:34:04.416Z,8.07
2022-10-20T06:36:34.018Z,8.67
2022-10-20T06:39:01.786Z,7.80
2022-10-20T06:41:28.677Z,8.00
2022-10-20T06:43:59.119Z,7.10
2022-10-20T06:46:31.350Z,7.87
2022-10-20T06:49:03.630Z,8.60
2022-10-20T06:51:31.242Z,7.80
2022-10-20T06:54:00.075Z,7.87
2022-10-20T06:56:29.335Z,8.47
2022-10-20T06:58:57.028Z,8.70
2022-10-20T07:01:31.283Z,8.67
2022-10-20T07:04:00.625Z,9.10
2022-10-20T07:06:32.645Z,8.90
2022-10-20T07:09:09.609Z,8.00
2022-10-20T07:11:36.444Z,8.10
2022-10-20T07:14:04.144Z,8.63
2022-10-20T07:16:33.817Z,8.60
2022-10-20T07:19:01.476Z,8.77
2022-10-20T07:21:32.549Z,7.80
2022-10-20T07:24:06.765Z,8.27
2022-10-20T07:26:36.390Z,9.67
2022-10-20T07:29:04.369Z,8.30
2022-10-20T07:31:37.717Z,9.77
2022-10-20T07:34:23.347Z,8.03
2022-10-20T07:36:51.758Z,8.57
2022-10-20T07:39:18.761Z,8.30
2022-10-20T07:41:47.738Z,9.37
2022-10-20T07:44:14.888Z,9.10
2022-10-20T07:46:41.753Z,8.70
2022-10-20T07:49:42.293Z,8.33
2022-10-20T07:51:55.697Z,9.00
2022-10-20T07:54:22.606Z,9.00
2022-10-20T07:56:49.712Z,8.73
2022-10-20T07:59:17.130Z,9.23
2022-10-20T08:01:44.306Z,8.90
2022-10-20T08:04:11.555Z,8.07
2022-10-20T08:06:39.120Z,8.10
2022-10-20T08:09:07.388Z,8.33
2022-10-20T08:11:34.872Z,10.70
2022-10-20T08:14:01.754Z,8.90
2022-10-20T08:19:18.003Z,8.67
2022-10-20T08:21:44.841Z,8.10
2022-10-20T08:24:11.636Z,8.80
2022-10-20T08:26:38.570Z,9.20
2022-10-20T08:29:05.475Z,8.90
2022-10-20T08:31:32.308Z,8.97
2022-10-20T08:34:00.058Z,9.80
2022-10-20T08:36:30.482Z,10.50
2022-10-20T08:39:03.432Z,8.90
2022-10-20T08:42:02.781Z,7.93
2022-10-20T08:44:31.153Z,8.00
2022-10-20T08:47:01.218Z,8.63
2022-10-20T08:49:31.770Z,7.67
2022-10-20T08:52:01.615Z,7.77
2022-10-20T08:54:28.806Z,9.80
2022-10-20T08:56:55.625Z,8.47
2022-10-20T08:59:27.071Z,8.80
2022-10-20T09:01:55.392Z,8.77
2022-10-20T09:04:24.274Z,8.83
2022-10-20T09:06:59.116Z,8.30
2022-10-20T09:09:30.322Z,8.43
2022-10-20T09:12:07.027Z,8.80
2022-10-20T09:14:37.357Z,8.80
2022-10-20T09:17:09.179Z,9.30
2022-10-20T09:19:38.646Z,8.27
2022-10-20T09:22:07.196Z,10.60
2022-10-20T09:24:35.992Z,8.90
2022-10-20T09:27:23.104Z,8.63
2022-10-20T09:29:50.230Z,9.10
2022-10-20T09:32:52.667Z,8.87
2022-10-20T09:35:29.555Z,8.67
2022-10-20T09:38:17.189Z,7.80
2022-10-20T09:40:46.549Z,8.60
2022-10-20T09:43:18.283Z,8.40
2022-10-20T09:45:58.906Z,9.60
2022-10-20T09:48:36.286Z,8.43
2022-10-20T09:51:05.781Z,9.00
2022-10-20T09:53:50.854Z,8.83
2022-10-20T09:56:37.949Z,9.70
2022-10-20T09:59:18.665Z,10.10
2022-10-20T10:02:02.189Z,9.97
2022-10-20T10:04:41.370Z,9.77
2022-10-20T10:07:26.553Z,9.80
2022-10-20T10:10:05.412Z,9.53
2022-10-20T10:12:36.140Z,9.30
2022-10-20T10:15:06.711Z,9.10
2022-10-20T10:17:43.484Z,8.90
2022-10-20T10:20:10.431Z,9.10
2022-10-20T10:22:38.114Z,9.20
2022-10-20T10:25:06.699Z,9.40
2022-10-20T10:27:35.514Z,9.20
2022-10-20T10:30:35.625Z,8.77
2022-10-20T10:33:02.531Z,8.27
2022-10-20T10:35:34.360Z,8.70
2022-10-20T10:38:01.719Z,8.83
2022-10-20T10:40:46.882Z,9.43
2022-10-20T10:43:32.200Z,8.33
2022-10-20T10:46:29.166Z,9.83
2022-10-20T10:49:07.881Z,10.47
2022-10-20T10:51:45.354Z,7.67
2022-10-20T10:54:31.212Z,8.20
2022-10-20T10:57:03.570Z,8.73
2022-10-20T10:59:35.146Z,9.50
2022-10-20T11:02:04.760Z,9.77
2022-10-20T11:04:55.979Z,9.20
2022-10-20T11:07:55.060Z,10.23
2022-10-20T11:10:28.485Z,10.83
2022-10-20T11:13:16.968Z,9.70
2022-10-20T11:16:07.688Z,10.50
2022-10-20T11:18:53.059Z,10.13
2022-10-20T11:21:45.845Z,11.17
2022-10-20T11:24:21.040Z,10.90
2022-10-20T11:26:53.473Z,11.73
2022-10-20T11:29:50.062Z,10.83
2022-10-20T11:33:00.511Z,11.23
2022-10-20T11:36:03.299Z,11.37
2022-10-20T11:38:39.298Z,12.17
2022-10-20T11:41:17.803Z,12.90
2022-10-20T11:43:55.230Z,12.93
2022-10-20T11:46:41.502Z,12.40
2022-10-20T11:49:12.226Z,14.00
2022-10-20T11:51:51.957Z,15.23
2022-10-20T11:54:30.710Z,14.90
2022-10-20T11:57:05.782Z,14.70
2022-10-20T11:59:38.747Z,15.33
2022-10-20T12:02:23.615Z,16.07
2022-10-20T12:05:20.218Z,15.93
2022-10-20T12:08:28.686Z,15.30
2022-10-20T12:11:21.534Z,16.90
2022-10-20T12:14:17.481Z,16.10
2022-10-20T12:16:58.247Z,16.30
2022-10-20T12:19:29.634Z,16.77
2022-10-20T12:21:58.050Z,17.03
2022-10-20T12:24:53.817Z,16.40
2022-10-20T12:27:27.634Z,17.67
2022-10-20T12:29:58.734Z,16.80
2022-10-20T12:32:36.519Z,17.57
2022-10-20T12:35:12.645Z,18.43
2022-10-20T12:37:42.264Z,18.53
2022-10-20T12:40:11.606Z,18.57
2022-10-20T12:42:46.621Z,17.27
2022-10-20T12:45:19.039Z,17.43
2022-10-20T12:47:59.250Z,16.53
2022-10-20T12:50:41.170Z,15.30
2022-10-20T12:53:28.961Z,16.37
2022-10-20T12:56:07.851Z,14.50
2022-10-20T12:58:58.845Z,14.97
2022-10-20T13:01:28.280Z,12.70
2022-10-20T13:03:55.136Z,14.13
2022-10-20T13:06:27.779Z,13.63
2022-10-20T13:09:04.527Z,14.17
2022-10-20T13:11:41.049Z,13.80
2022-10-20T13:14:18.482Z,14.33
2022-10-20T13:17:03.741Z,14.80
2022-10-20T13:20:01.366Z,13.77
2022-10-20T13:22:40.855Z,14.70
2022-10-20T13:25:26.259Z,13.43
2022-10-20T13:28:22.559Z,14.40
2022-10-20T13:31:09.523Z,12.63
2022-10-20T13:34:05.259Z,13.70
2022-10-20T13:36:35.684Z,14.50
2022-10-20T13:39:10.671Z,14.10
2022-10-20T13:42:05.058Z,13.43
2022-10-20T13:45:17.044Z,13.37
2022-10-20T13:48:02.613Z,13.40
2022-10-20T13:50:39.986Z,13.53
2022-10-20T13:53:20.727Z,14.13
2022-10-20T13:56:01.933Z,14.67
2022-10-20T13:58:28.879Z,15.60
2022-10-20T14:01:17.067Z,16.20
2022-10-20T14:03:45.860Z,15.37
2022-10-20T14:06:31.694Z,17.90
2022-10-20T14:11:31.767Z,16.57
2022-10-20T14:14:01.299Z,17.77
2022-10-20T14:16:30.673Z,16.63
2022-10-20T14:19:15.646Z,15.57
2022-10-20T14:21:51.362Z,15.90
2022-10-20T14:24:27.167Z,15.47
2022-10-20T14:26:55.939Z,15.97
2022-10-20T14:29:25.533Z,15.67
2022-10-20T14:31:52.684Z,15.30
2022-10-20T14:34:24.042Z,14.30
2022-10-20T14:36:52.442Z,15.43
2022-10-20T14:39:35.740Z,16.63
2022-10-20T14:42:22.512Z,15.00
2022-10-20T14:44:54.167Z,13.90
2022-10-20T14:47:21.363Z,16.73
2022-10-20T14:49:52.549Z,17.77
2022-10-20T14:52:23.005Z,16.20
2022-10-20T14:54:51.452Z,16.23
2022-10-20T14:57:18.673Z,19.07
2022-10-20T15:00:21.590Z,16.67
2022-10-20T15:02:56.204Z,16.60
2022-10-20T15:05:38.150Z,16.90
2022-10-20T15:08:31.394Z,15.43
2022-10-20T15:10:58.772Z,17.40
2022-10-20T15:13:32.799Z,16.90
2022-10-20T15:16:02.373Z,15.93
2022-10-20T15:18:30.270Z,15.30
2022-10-20T15:20:57.803Z,16.77
2022-10-20T15:23:29.262Z,15.87
2022-10-20T15:26:03.154Z,16.50
2022-10-20T15:28:47.518Z,16.00
2022-10-20T15:31:32.524Z,16.90
2022-10-20T15:33:59.516Z,14.60
2022-10-20T15:36:40.339Z,16.30
2022-10-20T15:39:09.238Z,17.00
2022-10-20T15:41:37.300Z,15.57
2022-10-20T15:44:10.749Z,14.77
2022-10-20T15:46:37.569Z,16.30
2022-10-20T15:49:04.374Z,16.60
2022-10-20T15:51:33.259Z,16.70
2022-10-20T15:54:00.447Z,16.77
2022-10-20T15:56:27.298Z,16.13
2022-10-20T15:58:54.331Z,15.40
2022-10-20T16:01:22.087Z,17.03
2022-10-20T16:03:49.598Z,16.63
2022-10-20T16:06:18.545Z,16.43
2022-10-20T16:08:47.127Z,15.77
2022-10-20T16:11:15.557Z,18.17
2022-10-20T16:13:42.549Z,18.00
2022-10-20T16:16:13.696Z,16.30
2022-10-20T16:18:40.673Z,17.20
2022-10-20T16:21:07.947Z,16.70
2022-10-20T16:23:40.619Z,16.50
2022-10-20T16:26:11.946Z,17.03
2022-10-20T16:28:38.912Z,16.87
2022-10-20T16:31:14.131Z,16.97
2022-10-20T16:33:41.421Z,17.17
2022-10-20T16:36:10.873Z,17.23
2022-10-20T16:38:40.180Z,15.90
2022-10-20T16:41:13.504Z,17.47
2022-10-20T16:43:44.429Z,17.80
2022-10-20T16:46:12.988Z,17.23
2022-10-20T16:48:42.563Z,17.17
2022-10-20T16:51:13.101Z,18.80
2022-10-20T16:53:39.932Z,18.93
2022-10-20T16:56:07.543Z,18.27
2022-10-20T16:58:34.999Z,17.33
2022-10-20T17:01:08.805Z,17.83
2022-10-20T17:06:29.833Z,17.83
2022-10-20T17:09:03.223Z,18.50
2022-10-20T17:11:31.818Z,17.13
2022-10-20T17:13:59.403Z,18.90
2022-10-20T17:16:29.554Z,19.13
2022-10-20T17:18:57.726Z,19.00
2022-10-20T17:21:25.250Z,18.63
2022-10-20T17:23:52.087Z,17.90
2022-10-20T17:26:21.839Z,17.80
2022-10-20T17:28:52.235Z,17.90
2022-10-20T17:31:19.242Z,17.83
2022-10-20T17:33:47.137Z,16.93
2022-10-20T17:36:14.364Z,19.63
2022-10-20T17:38:42.215Z,18.40
2022-10-20T17:41:11.423Z,18.53
2022-10-20T17:43:38.260Z,18.53
2022-10-20T17:46:11.491Z,18.80
2022-10-20T17:48:39.123Z,19.40
2022-10-20T17:51:08.111Z,18.90
2022-10-20T17:53:36.499Z,18.70
2022-10-20T17:56:05.833Z,17.50
2022-10-20T17:58:36.080Z,19.47
2022-10-20T18:01:17.335Z,18.40
2022-10-20T18:03:45.142Z,19.67
2022-10-20T18:06:17.531Z,18.70
2022-10-20T18:08:45.832Z,20.23
2022-10-20T18:11:15.518Z,19.50
2022-10-20T18:13:42.778Z,18.50
2022-10-20T18:46:43.382Z,17.97
2022-10-20T18:49:13.766Z,18.97
2022-10-20T18:51:41.104Z,18.70
2022-10-20T18:54:09.305Z,18.63
2022-10-20T18:56:36.339Z,18.23
2022-10-20T18:59:07.433Z,18.37
2022-10-20T19:01:36.645Z,19.37
2022-10-20T19:04:04.938Z,17.50
2022-10-20T19:06:37.065Z,18.70
2022-10-20T19:09:30.055Z,19.77
2022-10-20T19:11:56.943Z,19.27
2022-10-20T19:14:23.746Z,18.50
2022-10-20T19:16:51.103Z,19.93
2022-10-20T19:19:18.011Z,20.10
2022-10-20T19:21:45.191Z,20.47
2022-10-20T19:24:17.060Z,18.37
2022-10-20T19:26:56.805Z,19.50
2022-10-20T19:29:33.640Z,19.47
2022-10-20T19:32:02.140Z,19.37
2022-10-20T19:34:35.413Z,20.17
2022-10-20T19:37:03.061Z,20.73
2022-10-20T19:39:34.219Z,19.77
2022-10-20T19:42:02.383Z,19.63
2022-10-20T19:44:29.732Z,19.70
2022-10-20T19:46:57.275Z,21.27
2022-10-20T19:49:25.015Z,22.10
2022-10-20T19:51:52.384Z,20.37
2022-10-20T19:54:19.707Z,20.87
2022-10-20T19:56:46.873Z,19.93
2022-10-20T19:59:13.943Z,21.83
2022-10-20T20:01:40.821Z,23.47
2022-10-20T20:04:08.166Z,20.10
2022-10-20T20:06:35.370Z,21.63
2022-10-20T20:09:07.122Z,22.67
2022-10-20T20:11:36.417Z,21.10
2022-10-20T20:14:21.779Z,23.93
2022-10-20T20:16:48.644Z,21.17
2022-10-20T20:19:16.798Z,21.13
2022-10-20T20:21:43.815Z,23.57
2022-10-20T20:24:12.554Z,23.30
2022-10-20T20:26:39.601Z,22.50
2022-10-20T20:29:06.536Z,20.70
2022-10-20T20:31:33.895Z,22.50
2022-10-20T20:34:00.945Z,20.30
2022-10-20T20:36:28.832Z,21.70
2022-10-20T20:38:58.047Z,22.00
2022-10-20T20:41:26.826Z,23.73
2022-10-20T20:43:54.491Z,23.30
2022-10-20T20:46:22.718Z,22.83
2022-10-20T20:48:50.378Z,23.80
2022-10-20T20:51:17.285Z,22.10
2022-10-20T20:53:44.334Z,24.53
2022-10-20T20:56:13.351Z,21.27
2022-10-20T20:58:42.137Z,20.80
2022-10-20T21:01:13.210Z,21.90
2022-10-20T21:03:40.855Z,23.77
2022-10-20T21:06:10.639Z,21.90
2022-10-20T21:08:39.542Z,22.87
2022-10-20T21:11:17.486Z,22.07
2022-10-20T21:13:48.605Z,20.83
2022-10-20T21:16:31.205Z,21.57
2022-10-20T21:19:00.869Z,20.47
2022-10-20T21:21:36.077Z,22.37
2022-10-20T21:24:04.259Z,21.67
2022-10-20T21:26:31.945Z,21.60
2022-10-20T21:28:59.146Z,22.00
2022-10-20T21:31:27.495Z,20.77
2022-10-20T21:33:59.606Z,22.13
2022-10-20T21:36:28.826Z,22.70
2022-10-20T21:38:55.621Z,21.67
2022-10-20T21:41:24.683Z,20.87
2022-10-20T21:43:53.551Z,20.83
2022-10-20T21:49:11.907Z,19.33
2022-10-20T21:51:41.492Z,21.03
2022-10-20T21:54:11.924Z,22.40
2022-10-20T21:56:41.297Z,20.77
2022-10-20T21:59:17.956Z,21.37
2022-10-20T22:01:45.286Z,21.43
2022-10-20T22:04:12.533Z,19.37
2022-10-20T22:06:40.212Z,19.43
2022-10-20T22:09:07.611Z,19.20
2022-10-20T22:11:38.319Z,21.10
2022-10-20T22:14:05.931Z,19.93
2022-10-20T22:16:36.907Z,21.20
2022-10-20T22:19:10.993Z,18.73
2022-10-20T22:21:40.174Z,19.50
2022-10-20T22:24:07.211Z,19.00
2022-10-20T22:26:34.777Z,19.87
2022-10-20T22:29:02.246Z,21.13
2022-10-20T22:31:29.156Z,20.40
2022-10-20T22:33:58.214Z,19.47
2022-10-20T22:36:26.041Z,20.20
2022-10-20T22:38:53.331Z,18.80
2022-10-20T22:41:20.403Z,21.17
2022-10-20T22:43:47.260Z,21.20
2022-10-20T22:46:15.982Z,19.97
2022-10-20T22:48:43.002Z,21.10
2022-10-20T22:51:10.896Z,22.57
2022-10-20T22:53:38.463Z,21.10
2022-10-20T22:56:16.830Z,20.77
2022-10-20T22:58:43.930Z,19.33
2022-10-20T23:01:19.712Z,20.80
2022-10-20T23:03:47.453Z,21.20
2022-10-20T23:06:22.979Z,21.40
2022-10-20T23:08:52.282Z,20.50
2022-10-20T23:11:19.985Z,23.27
2022-10-20T23:13:47.433Z,21.83
2022-10-20T23:16:15.206Z,23.07
2022-10-20T23:18:42.578Z,21.93
2022-10-20T23:21:09.824Z,22.53
2022-10-20T23:23:37.867Z,22.23
2022-10-20T23:26:06.434Z,22.87
2022-10-20T23:28:34.297Z,23.00
2022-10-20T23:31:11.688Z,24.87
2022-10-20T23:33:39.615Z,23.67
2022-10-20T23:36:06.812Z,21.97
2022-10-20T23:38:33.933Z,22.53
2022-10-20T23:41:00.850Z,22.90
2022-10-20T23:43:27.798Z,22.80
2022-10-20T23:45:54.643Z,22.40
2022-10-20T23:48:21.598Z,21.80
2022-10-20T23:50:48.881Z,22.90
2022-10-20T23:53:15.947Z,23.10
2022-10-20T23:55:43.497Z,22.53
2022-10-20T23:58:10.544Z,21.80
